Time,TemperatureF,DewpointF,PressureIn,WindDirection,WindDirectionDegrees,WindSpeedMPH,WindSpeedGustMPH,Humidity,HourlyPrecipIn,Conditions,Clouds,dailyrainin,SoftwareType,DateUTC
2013-10-09 00:11:00,30.5,24.0,29.85,West,270,0.0,3.0,78,0.00,,,0.00,weatherlink.com 1.10,2013-10-09 06:11:00,
2013-10-09 00:21:00,29.9,24.0,29.86,WSW,253,1.0,2.0,77,0.00,,,0.00,weatherlink.com 1.10,2013-10-09 06:21:00,
2013-10-09 00:36:00,29.7,25.0,29.85,WNW,290,0.0,3.0,81,0.00,,,0.00,weatherlink.com 1.10,2013-10-09 06:36:00,
2013-10-09 00:51:00,28.2,23.0,29.85,NNW,328,0.0,2.0,82,0.00,,,0.00,weatherlink.com 1.10,2013-10-09 06:51:00,
2013-10-09 01:06:00,29.2,24.0,29.86,NNE,23,0.0,2.0,80,0.00,,,0.00,weatherlink.com 1.10,2013-10-09 07:06:00,
2013-10-09 01:21:00,29.0,24.0,29.87,NW,317,2.0,2.0,81,0.00,,,0.00,weatherlink.com 1.10,2013-10-09 07:21:00,
2013-10-09 01:36:00,28.0,23.0,29.87,WNW,294,1.0,3.0,82,0.00,,,0.00,weatherlink.com 1.10,2013-10-09 07:36:00,
2013-10-09 01:51:00,27.3,23.0,29.88,WNW,288,0.0,2.0,84,0.00,,,0.00,weatherlink.com 1.10,2013-10-09 07:51:00,
2013-10-09 02:06:00,27.7,24.0,29.88,North,358,0.0,0.0,85,0.00,,,0.00,weatherlink.com 1.10,2013-10-09 08:06:00,
2013-10-09 02:21:00,27.7,24.0,29.88,West,278,0.0,0.0,84,0.00,,,0.00,weatherlink.com 1.10,2013-10-09 08:21:00,
2013-10-09 02:36:00,27.3,23.0,29.89,West,272,1.0,2.0,85,0.00,,,0.00,weatherlink.com 1.10,2013-10-09 08:36:00,
2013-10-09 02:51:00,27.4,23.0,29.88,NNW,333,1.0,2.0,84,0.00,,,0.00,weatherlink.com 1.10,2013-10-09 08:51:00,
2013-10-09 03:06:00,26.5,23.0,29.88,WNW,288,0.0,0.0,86,0.00,,,0.00,weatherlink.com 1.10,2013-10-09 09:06:00,
2013-10-09 03:22:00,26.2,22.0,29.88,SW,215,0.0,2.0,84,0.00,,,0.00,weatherlink.com 1.10,2013-10-09 09:22:00,
2013-10-09 03:37:00,26.6,24.0,29.87,NW,308,0.0,5.0,88,0.00,,,0.00,weatherlink.com 1.10,2013-10-09 09:37:00,
2013-10-09 03:52:00,25.3,22.0,29.87,SSE,167,0.0,3.0,88,0.00,,,0.00,weatherlink.com 1.10,2013-10-09 09:52:00,
2013-10-09 04:07:00,25.3,22.0,29.87,NW,322,3.0,3.0,88,0.00,,,0.00,weatherlink.com 1.10,2013-10-09 10:07:00,
2013-10-09 04:22:00,24.9,22.0,29.87,ENE,61,1.0,3.0,87,0.00,,,0.00,weatherlink.com 1.10,2013-10-09 10:22:00,
2013-10-09 04:37:00,24.6,22.0,29.87,WNW,296,1.0,2.0,90,0.00,,,0.00,weatherlink.com 1.10,2013-10-09 10:37:00,
2013-10-09 04:52:00,24.8,22.0,29.87,West,277,0.0,1.0,89,0.00,,,0.00,weatherlink.com 1.10,2013-10-09 10:52:00,
2013-10-09 05:07:00,25.6,23.0,29.87,NNE,32,0.0,3.0,89,0.00,,,0.00,weatherlink.com 1.10,2013-10-09 11:07:00,
2013-10-09 05:22:00,24.2,22.0,29.88,NW,316,0.0,0.0,89,0.00,,,0.00,weatherlink.com 1.10,2013-10-09 11:22:00,
2013-10-09 05:37:00,24.3,22.0,29.88,SW,215,0.0,0.0,90,0.00,,,0.00,weatherlink.com 1.10,2013-10-09 11:37:00,
2013-10-09 05:52:00,23.9,21.0,29.88,East,85,0.0,0.0,90,0.00,,,0.00,weatherlink.com 1.10,2013-10-09 11:52:00,
2013-10-09 06:07:00,23.1,20.0,29.88,ESE,117,0.0,3.0,88,0.00,,,0.00,weatherlink.com 1.10,2013-10-09 12:07:00,
2013-10-09 06:22:00,22.5,20.0,29.89,ENE,61,1.0,3.0,90,0.00,,,0.00,weatherlink.com 1.10,2013-10-09 12:22:00,
2013-10-09 06:37:00,22.5,20.0,29.89,West,273,0.0,3.0,91,0.00,,,0.00,weatherlink.com 1.10,2013-10-09 12:37:00,
2013-10-09 06:52:00,22.4,20.0,29.89,WNW,283,1.0,3.0,91,0.00,,,0.00,weatherlink.com 1.10,2013-10-09 12:52:00,
2013-10-09 07:07:00,22.1,20.0,29.89,ENE,64,0.0,3.0,91,0.00,,,0.00,weatherlink.com 1.10,2013-10-09 13:07:00,
2013-10-09 07:22:00,22.6,21.0,29.89,North,358,3.0,3.0,92,0.00,,,0.00,weatherlink.com 1.10,2013-10-09 13:22:00,
2013-10-09 07:37:00,22.7,20.0,29.90,WNW,291,1.0,3.0,89,0.00,,,0.00,weatherlink.com 1.10,2013-10-09 13:37:00,
2013-10-09 07:52:00,25.6,23.0,29.90,NNE,13,1.0,4.0,89,0.00,,,0.00,weatherlink.com 1.10,2013-10-09 13:52:00,
2013-10-09 08:07:00,27.9,25.0,29.91,West,276,1.0,4.0,87,0.00,,,0.00,weatherlink.com 1.10,2013-10-09 14:07:00,
2013-10-09 08:22:00,29.4,26.0,29.90,West,281,0.0,4.0,86,0.00,,,0.00,weatherlink.com 1.10,2013-10-09 14:22:00,
2013-10-09 08:37:00,32.8,28.0,29.90,East,95,1.0,2.0,82,0.00,,,0.00,weatherlink.com 1.10,2013-10-09 14:37:00,
2013-10-09 08:52:00,34.5,29.0,29.90,SE,125,1.0,2.0,79,0.00,,,0.00,weatherlink.com 1.10,2013-10-09 14:52:00,
2013-10-09 09:07:00,35.7,28.0,29.90,ESE,103,2.0,4.0,74,0.00,,,0.00,weatherlink.com 1.10,2013-10-09 15:07:00,
2013-10-09 09:22:00,39.1,30.0,29.89,SE,128,1.0,2.0,71,0.00,,,0.00,weatherlink.com 1.10,2013-10-09 15:22:00,
2013-10-09 09:37:00,41.5,30.0,29.88,ESE,103,3.0,4.0,65,0.00,,,0.00,weatherlink.com 1.10,2013-10-09 15:37:00,
2013-10-09 09:53:00,43.5,31.0,29.88,SE,139,1.0,4.0,62,0.00,,,0.00,weatherlink.com 1.10,2013-10-09 15:53:00,
2013-10-09 10:08:00,47.5,30.0,29.88,ESE,105,1.0,4.0,50,0.00,,,0.00,weatherlink.com 1.10,2013-10-09 16:08:00,
2013-10-09 10:23:00,50.1,26.0,29.87,NNE,27,5.0,6.0,40,0.00,,,0.00,weatherlink.com 1.10,2013-10-09 16:23:00,
2013-10-09 10:38:00,52.0,26.0,29.87,SSW,204,1.0,7.0,36,0.00,,,0.00,weatherlink.com 1.10,2013-10-09 16:38:00,
2013-10-09 10:53:00,52.5,23.0,29.87,ESE,111,4.0,8.0,32,0.00,,,0.00,weatherlink.com 1.10,2013-10-09 16:53:00,
2013-10-09 11:08:00,53.2,22.0,29.87,SSW,203,4.0,14.0,30,0.00,,,0.00,weatherlink.com 1.10,2013-10-09 17:08:00,
2013-10-09 11:23:00,52.4,23.0,29.86,SE,143,11.0,23.0,32,0.00,,,0.00,weatherlink.com 1.10,2013-10-09 17:23:00,
2013-10-09 11:38:00,52.7,23.0,29.86,SW,221,6.0,23.0,31,0.00,,,0.00,weatherlink.com 1.10,2013-10-09 17:38:00,
2013-10-09 11:53:00,52.9,24.0,29.86,South,184,4.0,14.0,33,0.00,,,0.00,weatherlink.com 1.10,2013-10-09 17:53:00,
2013-10-09 12:08:00,53.2,25.0,29.86,ESE,117,5.0,12.0,34,0.00,,,0.00,weatherlink.com 1.10,2013-10-09 18:08:00,
2013-10-09 12:23:00,54.7,26.0,29.85,ESE,120,6.0,7.0,33,0.00,,,0.00,weatherlink.com 1.10,2013-10-09 18:23:00,
2013-10-09 12:38:00,54.7,23.0,29.84,West,264,12.0,16.0,29,0.00,,,0.00,weatherlink.com 1.10,2013-10-09 18:38:00,
2013-10-09 12:53:00,55.0,25.0,29.84,SSE,155,8.0,21.0,31,0.00,,,0.00,weatherlink.com 1.10,2013-10-09 18:53:00,
2013-10-09 13:08:00,54.0,25.0,29.84,ESE,103,7.0,18.0,33,0.00,,,0.00,weatherlink.com 1.10,2013-10-09 19:08:00,
2013-10-09 13:23:00,55.0,25.0,29.84,SSW,196,7.0,19.0,32,0.00,,,0.00,weatherlink.com 1.10,2013-10-09 19:23:00,
2013-10-09 13:38:00,55.1,25.0,29.83,SSE,166,17.0,22.0,31,0.00,,,0.00,weatherlink.com 1.10,2013-10-09 19:38:00,
2013-10-09 13:53:00,54.4,25.0,29.83,South,170,12.0,21.0,32,0.00,,,0.00,weatherlink.com 1.10,2013-10-09 19:53:00,
2013-10-09 14:08:00,54.6,24.0,29.83,SSW,203,8.0,24.0,30,0.00,,,0.00,weatherlink.com 1.10,2013-10-09 20:08:00,
2013-10-09 14:23:00,55.0,23.0,29.83,SW,226,5.0,19.0,29,0.00,,,0.00,weatherlink.com 1.10,2013-10-09 20:23:00,
2013-10-09 14:38:00,54.9,22.0,29.83,SSW,197,4.0,20.0,28,0.00,,,0.00,weatherlink.com 1.10,2013-10-09 20:38:00,
2013-10-09 14:53:00,54.7,20.0,29.83,SSW,193,11.0,34.0,26,0.00,,,0.00,weatherlink.com 1.10,2013-10-09 20:53:00,
2013-10-09 15:08:00,53.8,20.0,29.84,SSE,167,13.0,27.0,27,0.00,,,0.00,weatherlink.com 1.10,2013-10-09 21:08:00,
2013-10-09 15:23:00,54.1,21.0,29.82,SE,145,22.0,24.0,27,0.00,,,0.00,weatherlink.com 1.10,2013-10-09 21:23:00,
2013-10-09 15:38:00,53.3,21.0,29.83,South,188,9.0,20.0,28,0.00,,,0.00,weatherlink.com 1.10,2013-10-09 21:38:00,
2013-10-09 15:53:00,53.1,21.0,29.83,SW,228,9.0,16.0,29,0.00,,,0.00,weatherlink.com 1.10,2013-10-09 21:53:00,
2013-10-09 16:08:00,52.6,22.0,29.83,SW,218,10.0,20.0,30,0.00,,,0.00,weatherlink.com 1.10,2013-10-09 22:08:00,
2013-10-09 16:23:00,52.4,21.0,29.83,SSW,201,7.0,26.0,29,0.00,,,0.00,weatherlink.com 1.10,2013-10-09 22:23:00,
2013-10-09 16:38:00,52.8,21.0,29.83,South,179,7.0,20.0,29,0.00,,,0.00,weatherlink.com 1.10,2013-10-09 22:38:00,
2013-10-09 16:53:00,53.7,23.0,29.84,SW,235,11.0,17.0,30,0.00,,,0.00,weatherlink.com 1.10,2013-10-09 22:53:00,
2013-10-09 17:08:00,54.9,22.0,29.84,SSW,197,5.0,14.0,28,0.00,,,0.00,weatherlink.com 1.10,2013-10-09 23:08:00,
2013-10-09 17:23:00,53.8,23.0,29.84,WSW,253,6.0,16.0,30,0.00,,,0.00,weatherlink.com 1.10,2013-10-09 23:23:00,
2013-10-09 17:39:00,51.1,20.0,29.84,SSE,157,2.0,16.0,30,0.00,,,0.00,weatherlink.com 1.10,2013-10-09 23:39:00,
2013-10-09 17:53:00,50.2,20.0,29.84,WSW,243,3.0,11.0,31,0.00,,,0.00,weatherlink.com 1.10,2013-10-09 23:53:00,
2013-10-09 18:08:00,49.9,20.0,29.84,West,270,0.0,5.0,31,0.00,,,0.00,weatherlink.com 1.10,2013-10-10 00:08:00,
2013-10-09 18:23:00,46.8,22.0,29.83,SSE,163,0.0,5.0,38,0.00,,,0.00,weatherlink.com 1.10,2013-10-10 00:23:00,
2013-10-09 18:38:00,44.9,21.0,29.84,South,186,0.0,4.0,39,0.00,,,0.00,weatherlink.com 1.10,2013-10-10 00:38:00,
2013-10-09 18:53:00,45.7,21.0,29.84,WSW,246,1.0,9.0,38,0.00,,,0.00,weatherlink.com 1.10,2013-10-10 00:53:00,
2013-10-09 19:08:00,46.8,21.0,29.83,South,170,15.0,15.0,36,0.00,,,0.00,weatherlink.com 1.10,2013-10-10 01:08:00,
2013-10-09 19:23:00,46.9,21.0,29.83,East,89,3.0,8.0,36,0.00,,,0.00,weatherlink.com 1.10,2013-10-10 01:23:00,
2013-10-09 19:38:00,46.2,23.0,29.85,SE,142,5.0,15.0,40,0.00,,,0.00,weatherlink.com 1.10,2013-10-10 01:38:00,
2013-10-09 19:53:00,46.2,24.0,29.86,WSW,255,3.0,13.0,41,0.00,,,0.00,weatherlink.com 1.10,2013-10-10 01:53:00,
2013-10-09 20:08:00,45.9,24.0,29.84,East,95,6.0,8.0,43,0.00,,,0.00,weatherlink.com 1.10,2013-10-10 02:08:00,
2013-10-09 20:23:00,45.2,25.0,29.84,ENE,73,10.0,11.0,45,0.00,,,0.00,weatherlink.com 1.10,2013-10-10 02:23:00,
2013-10-09 20:38:00,43.5,25.0,29.86,West,273,2.0,5.0,49,0.00,,,0.00,weatherlink.com 1.10,2013-10-10 02:38:00,
2013-10-09 20:53:00,44.6,28.0,29.87,WSW,249,7.0,21.0,52,0.00,,,0.00,weatherlink.com 1.10,2013-10-10 02:53:00,
2013-10-09 21:08:00,43.5,30.0,29.90,SSE,148,7.0,17.0,59,0.00,,,0.00,weatherlink.com 1.10,2013-10-10 03:08:00,
2013-10-09 21:23:00,42.5,31.0,29.92,ESE,115,0.0,9.0,64,0.00,,,0.00,weatherlink.com 1.10,2013-10-10 03:23:00,
2013-10-09 21:38:00,41.7,31.0,29.90,SE,130,2.0,18.0,67,0.00,,,0.00,weatherlink.com 1.10,2013-10-10 03:38:00,
2013-10-09 22:08:00,40.3,33.0,29.93,SW,222,7.0,10.0,74,0.00,,,0.00,weatherlink.com 1.10,2013-10-10 04:08:00,
2013-10-09 22:23:00,40.0,33.0,29.88,SE,136,8.0,14.0,76,0.01,,,0.01,weatherlink.com 1.10,2013-10-10 04:23:00,
2013-10-09 22:38:00,39.5,33.0,29.87,East,87,6.0,10.0,77,0.01,,,0.01,weatherlink.com 1.10,2013-10-10 04:38:00,
2013-10-09 22:53:00,39.1,33.0,29.88,WSW,243,2.0,5.0,79,0.01,,,0.01,weatherlink.com 1.10,2013-10-10 04:53:00,
2013-10-09 23:08:00,38.5,33.0,29.87,WSW,246,1.0,3.0,81,0.01,,,0.01,weatherlink.com 1.10,2013-10-10 05:08:00,
2013-10-09 23:23:00,38.1,34.0,29.88,WNW,285,3.0,6.0,84,0.00,,,0.01,weatherlink.com 1.10,2013-10-10 05:23:00,
2013-10-09 23:38:00,37.7,34.0,29.87,North,359,0.0,3.0,86,0.00,,,0.01,weatherlink.com 1.10,2013-10-10 05:38:00,
2013-10-09 23:53:00,37.6,34.0,29.89,SW,225,4.0,4.0,87,0.00,,,0.01,weatherlink.com 1.10,2013-10-10 05:53:00,